MiSS Niz — WDF2697 — position and weather

sailwx.info

Track history (hours):
 
Tides and Currents Weather Stations Pressure Air Temp Water Temp Dewpoint Dewpoint Depression Visibility Wind Speed Wind Dir Waves Ship Positions

MiSS Niz

Owner: Marquette Transportation Company Offshore LLC, Jefferson, LA. More information available from US FCC via Universal Licensing System and Coast Guard Vessel Documentation Center.

Last reported at 2017-Nov-23 11:12 UTC. Time now 2017-Nov-23 20:38 UTC.
Position N 29°50' W 091°58'.

Length 22 m; draft 3.5 m.

Type: Tug. MMSI: 367430850.

Date/timePositionNaut miles runAvg speedWind from/ knotsBaromVisibWave heightAir tempDewpointWater temp
2017-Nov-23 11:12N 29°50' W 091°58'2 8.1
2017-Nov-23 11:00N 29°50' W 092°00'4 7.9
2017-Nov-23 10:30N 29°48' W 092°04'4 8.2
2017-Nov-23 10:00N 29°47' W 092°09'4 7.2
2017-Nov-23 09:30N 29°47' W 092°13'2 4.9
2017-Nov-23 09:00N 29°48' W 092°16'4 7.3
2017-Nov-23 08:30N 29°50' W 092°19'38 6.9
2017-Nov-23 03:01N 29°56' W 093°02'2 6.8
2017-Nov-23 02:39N 29°56' W 093°05'2 6.7
2017-Nov-23 02:24N 29°56' W 093°07'3 6.3
2017-Nov-23 02:01N 29°56' W 093°10'3 6.7
2017-Nov-23 01:30N 29°59' W 093°12'3 5.2
2017-Nov-23 01:00N 30°01' W 093°14'3 5.5
2017-Nov-23 00:30N 30°03' W 093°16'3 5.1
2017-Nov-23 00:00N 30°05' W 093°18'0 0.7
2017-Nov-22 23:30N 30°06' W 093°18'1 1.8
2017-Nov-22 23:00N 30°06' W 093°18'0 0.0
2017-Nov-22 22:30N 30°06' W 093°18'0 0.1
2017-Nov-22 22:00N 30°06' W 093°18'0 0.0
2017-Nov-22 21:31N 30°06' W 093°18'0 0.0
2017-Nov-22 21:01N 30°06' W 093°18'0 0.0
2017-Nov-22 20:30N 30°06' W 093°18'0 0.0
2017-Nov-22 20:00N 30°06' W 093°18'0 0.1
2017-Nov-22 19:31N 30°06' W 093°18'  
2017-Nov-17 03:08N 29°51' W 093°21'1 7.5
2017-Nov-17 03:00N 29°52' W 093°21'4 7.3
2017-Nov-17 02:31N 29°56' W 093°20'4 7.0
2017-Nov-17 02:01N 29°59' W 093°20'3 6.8
2017-Nov-17 01:31N 30°02' W 093°20'3 6.2
2017-Nov-17 01:01N 30°06' W 093°19'2 3.2
2017-Nov-17 00:30N 30°07' W 093°18'0 0.1
2017-Nov-17 00:01N 30°07' W 093°18'1 1.6
2017-Nov-16 23:30N 30°06' W 093°17'0 0.0
2017-Nov-16 23:01N 30°06' W 093°17'0 0.0
2017-Nov-16 22:31N 30°06' W 093°17'0 0.0
2017-Nov-16 22:01N 30°06' W 093°17'0 0.0
2017-Nov-16 21:31N 30°06' W 093°17'0 0.0
2017-Nov-16 21:01N 30°06' W 093°17'0 0.0
2017-Nov-16 20:31N 30°06' W 093°17'0 0.0
2017-Nov-16 20:00N 30°06' W 093°17'0 0.0
2017-Nov-16 19:31N 30°06' W 093°17'0 0.0
2017-Nov-16 19:01N 30°06' W 093°17'0 0.0
2017-Nov-16 18:31N 30°06' W 093°17'0 0.0
2017-Nov-16 18:01N 30°06' W 093°17'0 0.0
2017-Nov-16 17:31N 30°06' W 093°17'0 0.0
2017-Nov-16 17:01N 30°06' W 093°17'0 0.0
2017-Nov-16 16:31N 30°06' W 093°17'0 0.0
2017-Nov-16 16:01N 30°06' W 093°17'0 0.0
2017-Nov-16 15:31N 30°06' W 093°17'0 0.0
2017-Nov-16 15:01N 30°06' W 093°17'0 0.0
2017-Nov-16 14:31N 30°06' W 093°17'0 0.0
2017-Nov-16 14:01N 30°06' W 093°17'0 0.0
2017-Nov-16 13:31N 30°06' W 093°17'0 0.0
2017-Nov-16 13:01N 30°06' W 093°17'0 0.0
2017-Nov-16 12:31N 30°06' W 093°17'0 0.0
2017-Nov-16 12:01N 30°06' W 093°17'0 0.0
2017-Nov-16 11:30N 30°06' W 093°17'0 0.0
2017-Nov-16 11:00N 30°06' W 093°17'0 0.0
2017-Nov-16 10:31N 30°06' W 093°17'0 0.0
2017-Nov-16 10:01N 30°06' W 093°17'0 0.0
2017-Nov-16 09:31N 30°06' W 093°17'0 0.0
2017-Nov-16 09:01N 30°06' W 093°17'0 0.0
2017-Nov-16 08:31N 30°06' W 093°17'0 0.0
2017-Nov-16 08:01N 30°06' W 093°17'0 0.0
2017-Nov-16 07:30N 30°06' W 093°17'0 0.0
2017-Nov-16 07:01N 30°06' W 093°17'0 0.0
2017-Nov-16 06:30N 30°06' W 093°17'0 0.0
2017-Nov-16 06:01N 30°06' W 093°17'0 0.0
2017-Nov-16 05:31N 30°06' W 093°17'0 0.0
2017-Nov-16 05:01N 30°06' W 093°17'0 0.0
2017-Nov-16 04:31N 30°06' W 093°17'0 0.0
2017-Nov-16 04:01N 30°06' W 093°17'0 0.0
2017-Nov-16 03:31N 30°06' W 093°17'0 0.0
2017-Nov-16 03:01N 30°06' W 093°17'0 0.0
2017-Nov-16 02:30N 30°06' W 093°17'0 0.0
2017-Nov-16 02:01N 30°06' W 093°17'0 0.0
2017-Nov-16 01:31N 30°06' W 093°17'0 0.0
2017-Nov-16 01:01N 30°06' W 093°17'0 0.0
2017-Nov-16 00:31N 30°06' W 093°17'0 0.0
2017-Nov-16 00:01N 30°06' W 093°17'0 0.0
2017-Nov-15 23:31N 30°06' W 093°17'0 0.0
2017-Nov-15 23:00N 30°06' W 093°17'0 0.0
2017-Nov-15 22:31N 30°06' W 093°17'0 0.1
2017-Nov-15 22:01N 30°06' W 093°17'0 0.1
2017-Nov-15 21:31N 30°06' W 093°17'0 0.0
2017-Nov-15 21:01N 30°06' W 093°17'0 0.0
2017-Nov-15 20:31N 30°06' W 093°17'0 0.0
2017-Nov-15 20:01N 30°06' W 093°17'0 0.0
2017-Nov-15 19:31N 30°06' W 093°17'0 0.0
2017-Nov-15 19:01N 30°06' W 093°17'0 0.0
2017-Nov-15 18:30N 30°06' W 093°17'0 0.0
2017-Nov-15 18:00N 30°06' W 093°17'0 0.0
2017-Nov-15 17:30N 30°06' W 093°17'0 0.0
2017-Nov-15 17:00N 30°06' W 093°17'0 0.0
2017-Nov-15 16:30N 30°06' W 093°17'0 0.0
2017-Nov-15 16:00N 30°06' W 093°17'0 0.0
2017-Nov-15 15:30N 30°06' W 093°17'0 0.0
2017-Nov-15 15:00N 30°06' W 093°17'0 0.0
2017-Nov-15 14:30N 30°06' W 093°17'0 0.0
2017-Nov-15 14:00N 30°06' W 093°17'0 0.0
2017-Nov-15 13:30N 30°06' W 093°17'0 0.0
2017-Nov-15 13:00N 30°06' W 093°17'0 0.0
2017-Nov-15 12:30N 30°06' W 093°17'0 0.0
2017-Nov-15 12:00N 30°06' W 093°17'0 0.0
2017-Nov-15 11:30N 30°06' W 093°17'0 0.0
2017-Nov-15 11:00N 30°06' W 093°17'0 0.0
2017-Nov-15 10:30N 30°06' W 093°17'0 0.0
2017-Nov-15 10:00N 30°06' W 093°17'0 0.0
2017-Nov-15 09:30N 30°06' W 093°17'0 0.0
2017-Nov-15 09:00N 30°06' W 093°17'0 0.0
2017-Nov-15 08:30N 30°06' W 093°17'0 0.0
2017-Nov-15 08:00N 30°06' W 093°17'0 0.0
2017-Nov-15 07:30N 30°06' W 093°17'0 0.0
2017-Nov-15 07:00N 30°06' W 093°17'0 0.0
2017-Nov-15 06:30N 30°06' W 093°17'0 0.0
2017-Nov-15 06:00N 30°06' W 093°17'0 0.0
2017-Nov-15 05:30N 30°06' W 093°17'0 0.0
2017-Nov-15 05:00N 30°06' W 093°17'0 0.0
2017-Nov-15 04:30N 30°06' W 093°17'0 0.0
2017-Nov-15 04:00N 30°06' W 093°17'0 0.0
2017-Nov-15 03:30N 30°06' W 093°17'0 0.0
2017-Nov-15 03:00N 30°06' W 093°17'0 0.0
2017-Nov-15 02:30N 30°06' W 093°17'0 0.0
2017-Nov-15 02:00N 30°06' W 093°17'1 1.1
2017-Nov-15 01:30N 30°07' W 093°18'2 3.3
2017-Nov-15 01:00N 30°06' W 093°19'3 5.6
2017-Nov-15 00:30N 30°04' W 093°22'1 1.3
2017-Nov-15 00:00N 30°04' W 093°22'2 3.2
2017-Nov-14 23:30N 30°04' W 093°24'3 5.4
2017-Nov-14 23:00N 30°04' W 093°27'3 5.6
2017-Nov-14 22:29N 30°04' W 093°31'  
Track history (hours):
 
Tides and Currents Weather Stations Pressure Air Temp Water Temp Dewpoint Dewpoint Depression Visibility Wind Speed Wind Dir Waves Ship Positions

MiSS Niz

Owner: Marquette Transportation Company Offshore LLC, Jefferson, LA. More information available from US FCC via Universal Licensing System and Coast Guard Vessel Documentation Center.

Last reported at 2017-Nov-23 11:12 UTC. Time now 2017-Nov-23 20:38 UTC.
Position N 29°50' W 091°58'.

Length 22 m; draft 3.5 m.

Type: Tug. MMSI: 367430850.

Date/timePositionNaut miles runAvg speedWind from/ knotsBaromVisibWave heightAir tempDewpointWater temp
2017-Nov-23 11:12N 29°50' W 091°58'2 8.1
2017-Nov-23 11:00N 29°50' W 092°00'4 7.9
2017-Nov-23 10:30N 29°48' W 092°04'4 8.2
2017-Nov-23 10:00N 29°47' W 092°09'4 7.2
2017-Nov-23 09:30N 29°47' W 092°13'2 4.9
2017-Nov-23 09:00N 29°48' W 092°16'4 7.3
2017-Nov-23 08:30N 29°50' W 092°19'38 6.9
2017-Nov-23 03:01N 29°56' W 093°02'2 6.8
2017-Nov-23 02:39N 29°56' W 093°05'2 6.7
2017-Nov-23 02:24N 29°56' W 093°07'3 6.3
2017-Nov-23 02:01N 29°56' W 093°10'3 6.7
2017-Nov-23 01:30N 29°59' W 093°12'3 5.2
2017-Nov-23 01:00N 30°01' W 093°14'3 5.5
2017-Nov-23 00:30N 30°03' W 093°16'3 5.1
2017-Nov-23 00:00N 30°05' W 093°18'0 0.7
2017-Nov-22 23:30N 30°06' W 093°18'1 1.8
2017-Nov-22 23:00N 30°06' W 093°18'0 0.0
2017-Nov-22 22:30N 30°06' W 093°18'0 0.1
2017-Nov-22 22:00N 30°06' W 093°18'0 0.0
2017-Nov-22 21:31N 30°06' W 093°18'0 0.0
2017-Nov-22 21:01N 30°06' W 093°18'0 0.0
2017-Nov-22 20:30N 30°06' W 093°18'0 0.0
2017-Nov-22 20:00N 30°06' W 093°18'0 0.1
2017-Nov-22 19:31N 30°06' W 093°18'  
2017-Nov-17 03:08N 29°51' W 093°21'1 7.5
2017-Nov-17 03:00N 29°52' W 093°21'4 7.3
2017-Nov-17 02:31N 29°56' W 093°20'4 7.0
2017-Nov-17 02:01N 29°59' W 093°20'3 6.8
2017-Nov-17 01:31N 30°02' W 093°20'3 6.2
2017-Nov-17 01:01N 30°06' W 093°19'2 3.2
2017-Nov-17 00:30N 30°07' W 093°18'0 0.1
2017-Nov-17 00:01N 30°07' W 093°18'1 1.6
2017-Nov-16 23:30N 30°06' W 093°17'0 0.0
2017-Nov-16 23:01N 30°06' W 093°17'0 0.0
2017-Nov-16 22:31N 30°06' W 093°17'0 0.0
2017-Nov-16 22:01N 30°06' W 093°17'0 0.0
2017-Nov-16 21:31N 30°06' W 093°17'0 0.0
2017-Nov-16 21:01N 30°06' W 093°17'0 0.0
2017-Nov-16 20:31N 30°06' W 093°17'0 0.0
2017-Nov-16 20:00N 30°06' W 093°17'0 0.0
2017-Nov-16 19:31N 30°06' W 093°17'0 0.0
2017-Nov-16 19:01N 30°06' W 093°17'0 0.0
2017-Nov-16 18:31N 30°06' W 093°17'0 0.0
2017-Nov-16 18:01N 30°06' W 093°17'0 0.0
2017-Nov-16 17:31N 30°06' W 093°17'0 0.0
2017-Nov-16 17:01N 30°06' W 093°17'0 0.0
2017-Nov-16 16:31N 30°06' W 093°17'0 0.0
2017-Nov-16 16:01N 30°06' W 093°17'0 0.0
2017-Nov-16 15:31N 30°06' W 093°17'0 0.0
2017-Nov-16 15:01N 30°06' W 093°17'0 0.0
2017-Nov-16 14:31N 30°06' W 093°17'0 0.0
2017-Nov-16 14:01N 30°06' W 093°17'0 0.0
2017-Nov-16 13:31N 30°06' W 093°17'0 0.0
2017-Nov-16 13:01N 30°06' W 093°17'0 0.0
2017-Nov-16 12:31N 30°06' W 093°17'0 0.0
2017-Nov-16 12:01N 30°06' W 093°17'0 0.0
2017-Nov-16 11:30N 30°06' W 093°17'0 0.0
2017-Nov-16 11:00N 30°06' W 093°17'0 0.0
2017-Nov-16 10:31N 30°06' W 093°17'0 0.0
2017-Nov-16 10:01N 30°06' W 093°17'0 0.0
2017-Nov-16 09:31N 30°06' W 093°17'0 0.0
2017-Nov-16 09:01N 30°06' W 093°17'0 0.0
2017-Nov-16 08:31N 30°06' W 093°17'0 0.0
2017-Nov-16 08:01N 30°06' W 093°17'0 0.0
2017-Nov-16 07:30N 30°06' W 093°17'0 0.0
2017-Nov-16 07:01N 30°06' W 093°17'0 0.0
2017-Nov-16 06:30N 30°06' W 093°17'0 0.0
2017-Nov-16 06:01N 30°06' W 093°17'0 0.0
2017-Nov-16 05:31N 30°06' W 093°17'0 0.0
2017-Nov-16 05:01N 30°06' W 093°17'0 0.0
2017-Nov-16 04:31N 30°06' W 093°17'0 0.0
2017-Nov-16 04:01N 30°06' W 093°17'0 0.0
2017-Nov-16 03:31N 30°06' W 093°17'0 0.0
2017-Nov-16 03:01N 30°06' W 093°17'0 0.0
2017-Nov-16 02:30N 30°06' W 093°17'0 0.0
2017-Nov-16 02:01N 30°06' W 093°17'0 0.0
2017-Nov-16 01:31N 30°06' W 093°17'0 0.0
2017-Nov-16 01:01N 30°06' W 093°17'0 0.0
2017-Nov-16 00:31N 30°06' W 093°17'0 0.0
2017-Nov-16 00:01N 30°06' W 093°17'0 0.0
2017-Nov-15 23:31N 30°06' W 093°17'0 0.0
2017-Nov-15 23:00N 30°06' W 093°17'0 0.0
2017-Nov-15 22:31N 30°06' W 093°17'0 0.1
2017-Nov-15 22:01N 30°06' W 093°17'0 0.1
2017-Nov-15 21:31N 30°06' W 093°17'0 0.0
2017-Nov-15 21:01N 30°06' W 093°17'0 0.0
2017-Nov-15 20:31N 30°06' W 093°17'0 0.0
2017-Nov-15 20:01N 30°06' W 093°17'0 0.0
2017-Nov-15 19:31N 30°06' W 093°17'0 0.0
2017-Nov-15 19:01N 30°06' W 093°17'0 0.0
2017-Nov-15 18:30N 30°06' W 093°17'0 0.0
2017-Nov-15 18:00N 30°06' W 093°17'0 0.0
2017-Nov-15 17:30N 30°06' W 093°17'0 0.0
2017-Nov-15 17:00N 30°06' W 093°17'0 0.0
2017-Nov-15 16:30N 30°06' W 093°17'0 0.0
2017-Nov-15 16:00N 30°06' W 093°17'0 0.0
2017-Nov-15 15:30N 30°06' W 093°17'0 0.0
2017-Nov-15 15:00N 30°06' W 093°17'0 0.0
2017-Nov-15 14:30N 30°06' W 093°17'0 0.0
2017-Nov-15 14:00N 30°06' W 093°17'0 0.0
2017-Nov-15 13:30N 30°06' W 093°17'0 0.0
2017-Nov-15 13:00N 30°06' W 093°17'0 0.0
2017-Nov-15 12:30N 30°06' W 093°17'0 0.0
2017-Nov-15 12:00N 30°06' W 093°17'0 0.0
2017-Nov-15 11:30N 30°06' W 093°17'0 0.0
2017-Nov-15 11:00N 30°06' W 093°17'0 0.0
2017-Nov-15 10:30N 30°06' W 093°17'0 0.0
2017-Nov-15 10:00N 30°06' W 093°17'0 0.0
2017-Nov-15 09:30N 30°06' W 093°17'0 0.0
2017-Nov-15 09:00N 30°06' W 093°17'0 0.0
2017-Nov-15 08:30N 30°06' W 093°17'0 0.0
2017-Nov-15 08:00N 30°06' W 093°17'0 0.0
2017-Nov-15 07:30N 30°06' W 093°17'0 0.0
2017-Nov-15 07:00N 30°06' W 093°17'0 0.0
2017-Nov-15 06:30N 30°06' W 093°17'0 0.0
2017-Nov-15 06:00N 30°06' W 093°17'0 0.0
2017-Nov-15 05:30N 30°06' W 093°17'0 0.0
2017-Nov-15 05:00N 30°06' W 093°17'0 0.0
2017-Nov-15 04:30N 30°06' W 093°17'0 0.0
2017-Nov-15 04:00N 30°06' W 093°17'0 0.0
2017-Nov-15 03:30N 30°06' W 093°17'0 0.0
2017-Nov-15 03:00N 30°06' W 093°17'0 0.0
2017-Nov-15 02:30N 30°06' W 093°17'0 0.0
2017-Nov-15 02:00N 30°06' W 093°17'1 1.1
2017-Nov-15 01:30N 30°07' W 093°18'2 3.3
2017-Nov-15 01:00N 30°06' W 093°19'3 5.6
2017-Nov-15 00:30N 30°04' W 093°22'1 1.3
2017-Nov-15 00:00N 30°04' W 093°22'2 3.2
2017-Nov-14 23:30N 30°04' W 093°24'3 5.4
2017-Nov-14 23:00N 30°04' W 093°27'3 5.6
2017-Nov-14 22:29N 30°04' W 093°31'  

Dump ship's entire track history